PWSweather.com
Personal Weather Stations
Station Observations
NYERIN
South Erin, Erin, NY 14838-9545

South ErinErin, NY 14838-9545

Lat: 42.150605, Lon: -76.654038

Elevation: 1663

Station Type: Davis VP Pro II

http://southerin-ny.org/wx.php

Latest ConditionsUpdated 7:02:01 PM EST Sunday, Feb 1, 2015
Currently Today's Max Today's Min Today's Average
Temperature 18.0°F-7.8°C 23.8°F-4.6°C 15.2°F-9.3°C 20.8°F-6.2°C
Dew Point 16.6°F-8.6°C 22.1°F-5.5°C 9.9°F-12.3°C 17.8°F-7.9°C
Winds 0.9 mph ENE1.4 kmh ENE 5.9 mph WSW9.5 kmh WSW - 2.9 mph 4.7 kmh
Wind Gusts 4.0 mph6.4 kmh 9.0 mph14.5 kmh - -
Humidity 94% 95% 78% 88%
Pressure 30.06 in1017.9 mb 30.24 in1024.0 mb 30.06 in1017.9 mb -
Precipitation - 0.03 in0.8 mm - -
Hour Temp Dew Point Humidity Winds Wind Gusts Pressure Precip Precip Rate Daily Precip Total
07:02 PM 18.0°F-7.8°C 16.6°F-8.6°C 94% 0.9 mph ENE1.4 kmh ENE 4.0 mph6.4 kmh 30.06 in1017.9 mb 0.00 in0.0 mm 0.00 in/hr0.0 mm/hr 0.03 in0.8 mm
06:52 PM 18.0°F-7.8°C 16.6°F-8.6°C 94% 2.4 mph ESE3.9 kmh ESE 6.0 mph9.7 kmh 30.08 in1018.6 mb 0.00 in0.0 mm 0.00 in/hr0.0 mm/hr 0.03 in0.8 mm
06:42 PM 18.1°F-7.7°C 16.6°F-8.6°C 94% 0.2 mph ENE0.3 kmh ENE 2.0 mph3.2 kmh 30.08 in1018.6 mb 0.00 in0.0 mm 0.00 in/hr0.0 mm/hr 0.03 in0.8 mm
06:32 PM 18.1°F-7.7°C 16.4°F-8.7°C 93% Calm Calm 3.0 mph4.8 kmh 30.09 in1019.0 mb 0.00 in0.0 mm 0.00 in/hr0.0 mm/hr 0.03 in0.8 mm
06:22 PM 18.3°F-7.6°C 16.6°F-8.6°C 93% 2.4 mph NE3.9 kmh NE 5.0 mph8.0 kmh 30.10 in1019.3 mb 0.00 in0.0 mm 0.00 in/hr0.0 mm/hr 0.03 in0.8 mm
06:12 PM 18.4°F-7.6°C 16.7°F-8.5°C 93% 0.5 mph NE0.8 kmh NE 3.0 mph4.8 kmh 30.11 in1019.6 mb 0.00 in0.0 mm 0.00 in/hr0.0 mm/hr 0.03 in0.8 mm
06:02 PM 18.3°F-7.6°C 16.6°F-8.6°C 93% 0.2 mph NE0.3 kmh NE 1.0 mph1.6 kmh 30.11 in1019.6 mb 0.01 in0.3 mm 0.01 in/hr0.3 mm/hr 0.03 in0.8 mm
05:52 PM 18.3°F-7.6°C 16.4°F-8.7°C 92% 0.1 mph NE0.2 kmh NE 2.0 mph3.2 kmh 30.11 in1019.6 mb 0.00 in0.0 mm 0.00 in/hr0.0 mm/hr 0.02 in0.5 mm
05:42 PM 18.4°F-7.6°C 16.5°F-8.6°C 92% 2.1 mph NE3.4 kmh NE 3.0 mph4.8 kmh 30.11 in1019.6 mb 0.00 in0.0 mm 0.00 in/hr0.0 mm/hr 0.02 in0.5 mm
05:32 PM 18.7°F-7.4°C 16.7°F-8.5°C 92% 1.9 mph NNE3.1 kmh NNE 2.0 mph3.2 kmh 30.11 in1019.6 mb 0.00 in0.0 mm 0.00 in/hr0.0 mm/hr 0.02 in0.5 mm
05:22 PM 18.9°F-7.3°C 17.0°F-8.3°C 92% 2.1 mph NE3.4 kmh NE 6.0 mph9.7 kmh 30.12 in1020.0 mb 0.00 in0.0 mm 0.00 in/hr0.0 mm/hr 0.02 in0.5 mm
05:12 PM 19.2°F-7.1°C 17.3°F-8.2°C 92% 4.3 mph ENE6.9 kmh ENE 4.0 mph6.4 kmh 30.12 in1020.0 mb 0.00 in0.0 mm 0.00 in/hr0.0 mm/hr 0.02 in0.5 mm
05:02 PM 19.5°F-6.9°C 17.5°F-8.1°C 92% 0.7 mph NE1.1 kmh NE 2.0 mph3.2 kmh 30.12 in1020.0 mb 0.00 in0.0 mm 0.00 in/hr0.0 mm/hr 0.02 in0.5 mm
04:52 PM 19.7°F-6.8°C 17.8°F-7.9°C 92% 4.5 mph NE7.2 kmh NE 6.0 mph9.7 kmh 30.12 in1020.0 mb 0.00 in0.0 mm 0.00 in/hr0.0 mm/hr 0.02 in0.5 mm
04:42 PM 20.0°F-6.7°C 18.1°F-7.7°C 92% 2.9 mph NNE4.7 kmh NNE 4.0 mph6.4 kmh 30.12 in1020.0 mb 0.00 in0.0 mm 0.00 in/hr0.0 mm/hr 0.02 in0.5 mm
04:32 PM 20.3°F-6.5°C 18.3°F-7.6°C 92% 4.6 mph NNE7.4 kmh NNE 6.0 mph9.7 kmh 30.13 in1020.3 mb 0.00 in0.0 mm 0.00 in/hr0.0 mm/hr 0.02 in0.5 mm
04:22 PM 20.5°F-6.4°C 18.5°F-7.5°C 92% 2.5 mph NE4.0 kmh NE 5.0 mph8.0 kmh 30.13 in1020.3 mb 0.00 in0.0 mm 0.00 in/hr0.0 mm/hr 0.02 in0.5 mm
04:12 PM 20.5°F-6.4°C 18.5°F-7.5°C 92% 1.4 mph NE2.3 kmh NE 3.0 mph4.8 kmh 30.13 in1020.3 mb 0.00 in0.0 mm 0.00 in/hr0.0 mm/hr 0.02 in0.5 mm
04:02 PM 20.6°F-6.3°C 18.6°F-7.4°C 92% 2.1 mph NE3.4 kmh NE 4.0 mph6.4 kmh 30.14 in1020.7 mb 0.00 in0.0 mm 0.00 in/hr0.0 mm/hr 0.02 in0.5 mm
03:52 PM 20.6°F-6.3°C 18.6°F-7.4°C 92% 3.6 mph NNE5.8 kmh NNE 5.0 mph8.0 kmh 30.14 in1020.7 mb 0.00 in0.0 mm 0.00 in/hr0.0 mm/hr 0.02 in0.5 mm
03:42 PM 20.6°F-6.3°C 18.4°F-7.6°C 91% 2.8 mph NE4.5 kmh NE 4.0 mph6.4 kmh 30.15 in1021.0 mb 0.01 in0.3 mm 0.06 in/hr1.5 mm/hr 0.02 in0.5 mm
03:32 PM 20.6°F-6.3°C 18.4°F-7.6°C 91% 4.1 mph NNE6.6 kmh NNE 5.0 mph8.0 kmh 30.15 in1021.0 mb 0.00 in0.0 mm 0.00 in/hr0.0 mm/hr 0.01 in0.3 mm
03:22 PM 20.5°F-6.4°C 18.0°F-7.8°C 90% 4.1 mph NNE6.6 kmh NNE 7.0 mph11.3 kmh 30.15 in1021.0 mb 0.00 in0.0 mm 0.00 in/hr0.0 mm/hr 0.01 in0.3 mm
03:12 PM 20.8°F-6.2°C 18.1°F-7.7°C 89% 3.8 mph ENE6.1 kmh ENE 6.0 mph9.7 kmh 30.16 in1021.3 mb 0.00 in0.0 mm 0.00 in/hr0.0 mm/hr 0.01 in0.3 mm
03:02 PM 21.1°F-6.1°C 18.4°F-7.6°C 89% 2.6 mph NE4.2 kmh NE 4.0 mph6.4 kmh 30.16 in1021.3 mb 0.00 in0.0 mm 0.00 in/hr0.0 mm/hr 0.01 in0.3 mm
02:52 PM 21.4°F-5.9°C 18.7°F-7.4°C 89% 2.1 mph E3.4 kmh E 3.0 mph4.8 kmh 30.16 in1021.3 mb 0.00 in0.0 mm 0.00 in/hr0.0 mm/hr 0.01 in0.3 mm
02:42 PM 21.6°F-5.8°C 18.9°F-7.3°C 89% 2.9 mph NE4.7 kmh NE 6.0 mph9.7 kmh 30.16 in1021.3 mb 0.00 in0.0 mm 0.00 in/hr0.0 mm/hr 0.01 in0.3 mm
02:32 PM 21.6°F-5.8°C 18.9°F-7.3°C 89% 2.6 mph NE4.2 kmh NE 5.0 mph8.0 kmh 30.16 in1021.3 mb 0.01 in0.3 mm 0.06 in/hr1.5 mm/hr 0.01 in0.3 mm
02:22 PM 21.8°F-5.7°C 18.8°F-7.3°C 88% 2.5 mph NE4.0 kmh NE 4.0 mph6.4 kmh 30.16 in1021.3 mb 0.00 in0.0 mm 0.00 in/hr0.0 mm/hr 0.00 in0.0 mm
02:12 PM 22.1°F-5.5°C 18.8°F-7.3°C 87% 3.9 mph ENE6.3 kmh ENE 5.0 mph8.0 kmh 30.16 in1021.3 mb 0.00 in0.0 mm 0.00 in/hr0.0 mm/hr 0.00 in0.0 mm
02:02 PM 22.2°F-5.4°C 18.4°F-7.6°C 85% 2.4 mph NE3.9 kmh NE 3.0 mph4.8 kmh 30.17 in1021.7 mb 0.00 in0.0 mm 0.00 in/hr0.0 mm/hr 0.00 in0.0 mm
01:52 PM 22.5°F-5.3°C 18.7°F-7.4°C 85% 2.8 mph N4.5 kmh N 3.0 mph4.8 kmh 30.17 in1021.7 mb 0.00 in0.0 mm 0.00 in/hr0.0 mm/hr 0.00 in0.0 mm
01:42 PM 22.5°F-5.3°C 18.4°F-7.6°C 84% 1.3 mph N2.1 kmh N 2.0 mph3.2 kmh 30.17 in1021.7 mb 0.00 in0.0 mm 0.00 in/hr0.0 mm/hr 0.00 in0.0 mm
01:32 PM 22.5°F-5.3°C 18.4°F-7.6°C 84% 2.4 mph N3.9 kmh N 4.0 mph6.4 kmh 30.18 in1022.0 mb 0.00 in0.0 mm 0.00 in/hr0.0 mm/hr 0.00 in0.0 mm
01:22 PM 22.9°F-5.1°C 18.5°F-7.5°C 83% 3.0 mph NNE4.8 kmh NNE 3.0 mph4.8 kmh 30.18 in1022.0 mb 0.00 in0.0 mm 0.00 in/hr0.0 mm/hr 0.00 in0.0 mm
01:12 PM 22.7°F-5.2°C 18.6°F-7.4°C 84% 1.9 mph NNE3.1 kmh NNE 4.0 mph6.4 kmh 30.18 in1022.0 mb 0.00 in0.0 mm 0.00 in/hr0.0 mm/hr 0.00 in0.0 mm
01:02 PM 22.5°F-5.3°C 18.4°F-7.6°C 84% 2.8 mph NNE4.5 kmh NNE 3.0 mph4.8 kmh 30.18 in1022.0 mb 0.00 in0.0 mm 0.00 in/hr0.0 mm/hr 0.00 in0.0 mm
12:52 PM 22.7°F-5.2°C 18.6°F-7.4°C 84% 0.9 mph N1.4 kmh N 4.0 mph6.4 kmh 30.19 in1022.4 mb 0.00 in0.0 mm 0.00 in/hr0.0 mm/hr 0.00 in0.0 mm
12:42 PM 22.5°F-5.3°C 18.7°F-7.4°C 85% 3.3 mph NE5.3 kmh NE 4.0 mph6.4 kmh 30.20 in1022.7 mb 0.00 in0.0 mm 0.00 in/hr0.0 mm/hr 0.00 in0.0 mm
12:32 PM 22.4°F-5.3°C 18.6°F-7.4°C 85% 2.8 mph NNE4.5 kmh NNE 4.0 mph6.4 kmh 30.20 in1022.7 mb 0.00 in0.0 mm 0.00 in/hr0.0 mm/hr 0.00 in0.0 mm
12:22 PM 22.4°F-5.3°C 18.8°F-7.3°C 86% 2.5 mph NE4.0 kmh NE 5.0 mph8.0 kmh 30.20 in1022.7 mb 0.00 in0.0 mm 0.00 in/hr0.0 mm/hr 0.00 in0.0 mm
12:12 PM 22.7°F-5.2°C 18.9°F-7.3°C 85% 2.5 mph NE4.0 kmh NE 4.0 mph6.4 kmh 30.20 in1022.7 mb 0.00 in0.0 mm 0.00 in/hr0.0 mm/hr 0.00 in0.0 mm
12:02 PM 23.0°F-5.0°C 18.9°F-7.3°C 84% 4.0 mph ENE6.4 kmh ENE 5.0 mph8.0 kmh 30.21 in1023.0 mb 0.00 in0.0 mm 0.00 in/hr0.0 mm/hr 0.00 in0.0 mm
11:52 AM 23.2°F-4.9°C 19.1°F-7.2°C 84% 2.6 mph NE4.2 kmh NE 3.0 mph4.8 kmh 30.21 in1023.0 mb 0.00 in0.0 mm 0.00 in/hr0.0 mm/hr 0.00 in0.0 mm
11:42 AM 23.0°F-5.0°C 19.2°F-7.1°C 85% 3.5 mph N5.6 kmh N 4.0 mph6.4 kmh 30.21 in1023.0 mb 0.00 in0.0 mm 0.00 in/hr0.0 mm/hr 0.00 in0.0 mm
11:32 AM 23.0°F-5.0°C 19.4°F-7.0°C 86% 3.4 mph N5.5 kmh N 6.0 mph9.7 kmh 30.23 in1023.7 mb 0.00 in0.0 mm 0.00 in/hr0.0 mm/hr 0.00 in0.0 mm
11:22 AM 22.9°F-5.1°C 19.6°F-6.9°C 87% 0.8 mph NE1.3 kmh NE 5.0 mph8.0 kmh 30.23 in1023.7 mb 0.00 in0.0 mm 0.00 in/hr0.0 mm/hr 0.00 in0.0 mm
11:12 AM 22.7°F-5.2°C 19.7°F-6.8°C 88% 2.3 mph N3.7 kmh N 3.0 mph4.8 kmh 30.23 in1023.7 mb 0.00 in0.0 mm 0.00 in/hr0.0 mm/hr 0.00 in0.0 mm
11:02 AM 22.9°F-5.1°C 19.9°F-6.7°C 88% 3.1 mph N5.0 kmh N 5.0 mph8.0 kmh 30.24 in1024.0 mb 0.00 in0.0 mm 0.00 in/hr0.0 mm/hr 0.00 in0.0 mm
10:52 AM 22.9°F-5.1°C 20.1°F-6.6°C 89% 3.6 mph NNE5.8 kmh NNE 5.0 mph8.0 kmh 30.23 in1023.7 mb 0.00 in0.0 mm 0.00 in/hr0.0 mm/hr 0.00 in0.0 mm
10:42 AM 22.9°F-5.1°C 20.4°F-6.4°C 90% 4.5 mph NNE7.2 kmh NNE 7.0 mph11.3 kmh 30.23 in1023.7 mb 0.00 in0.0 mm 0.00 in/hr0.0 mm/hr 0.00 in0.0 mm
10:32 AM 23.0°F-5.0°C 21.0°F-6.1°C 92% 2.8 mph N4.5 kmh N 4.0 mph6.4 kmh 30.24 in1024.0 mb 0.00 in0.0 mm 0.00 in/hr0.0 mm/hr 0.00 in0.0 mm
10:22 AM 23.2°F-4.9°C 21.5°F-5.8°C 93% 2.0 mph NW3.2 kmh NW 3.0 mph4.8 kmh 30.23 in1023.7 mb 0.00 in0.0 mm 0.00 in/hr0.0 mm/hr 0.00 in0.0 mm
10:12 AM 23.3°F-4.8°C 21.6°F-5.8°C 93% 0.2 mph WNW0.3 kmh WNW 4.0 mph6.4 kmh 30.23 in1023.7 mb 0.00 in0.0 mm 0.00 in/hr0.0 mm/hr 0.00 in0.0 mm
10:02 AM 23.5°F-4.7°C 21.8°F-5.7°C 93% 3.6 mph WNW5.8 kmh WNW 4.0 mph6.4 kmh 30.23 in1023.7 mb 0.00 in0.0 mm 0.00 in/hr0.0 mm/hr 0.00 in0.0 mm
09:52 AM 23.6°F-4.7°C 21.6°F-5.8°C 92% 2.2 mph NW3.5 kmh NW 4.0 mph6.4 kmh 30.24 in1024.0 mb 0.00 in0.0 mm 0.00 in/hr0.0 mm/hr 0.00 in0.0 mm
09:42 AM 23.8°F-4.6°C 22.1°F-5.5°C 93% 5.1 mph NW8.2 kmh NW 6.0 mph9.7 kmh 30.24 in1024.0 mb 0.00 in0.0 mm 0.00 in/hr0.0 mm/hr 0.00 in0.0 mm
09:32 AM 23.6°F-4.7°C 21.9°F-5.6°C 93% 1.7 mph W2.7 kmh W 4.0 mph6.4 kmh 30.24 in1024.0 mb 0.00 in0.0 mm 0.00 in/hr0.0 mm/hr 0.00 in0.0 mm
09:22 AM 23.5°F-4.7°C 22.0°F-5.6°C 94% 4.7 mph W7.6 kmh W 6.0 mph9.7 kmh 30.24 in1024.0 mb 0.00 in0.0 mm 0.00 in/hr0.0 mm/hr 0.00 in0.0 mm
09:12 AM 23.3°F-4.8°C 21.8°F-5.7°C 94% 4.7 mph WSW7.6 kmh WSW 8.0 mph12.9 kmh 30.24 in1024.0 mb 0.00 in0.0 mm 0.00 in/hr0.0 mm/hr 0.00 in0.0 mm
09:02 AM 23.2°F-4.9°C 21.7°F-5.7°C 94% 2.2 mph W3.5 kmh W 6.0 mph9.7 kmh 30.24 in1024.0 mb 0.00 in0.0 mm 0.00 in/hr0.0 mm/hr 0.00 in0.0 mm
08:52 AM 22.9°F-5.1°C 21.4°F-5.9°C 94% 2.2 mph W3.5 kmh W 3.0 mph4.8 kmh 30.24 in1024.0 mb 0.00 in0.0 mm 0.00 in/hr0.0 mm/hr 0.00 in0.0 mm
08:42 AM 22.8°F-5.1°C 21.3°F-5.9°C 94% 4.4 mph W7.1 kmh W 6.0 mph9.7 kmh 30.24 in1024.0 mb 0.00 in0.0 mm 0.00 in/hr0.0 mm/hr 0.00 in0.0 mm
08:32 AM 22.5°F-5.3°C 21.3°F-5.9°C 95% 0.5 mph W0.8 kmh W 3.0 mph4.8 kmh 30.24 in1024.0 mb 0.00 in0.0 mm 0.00 in/hr0.0 mm/hr 0.00 in0.0 mm
08:22 AM 22.4°F-5.3°C 21.2°F-6.0°C 95% 4.2 mph WSW6.8 kmh WSW 7.0 mph11.3 kmh 30.24 in1024.0 mb 0.00 in0.0 mm 0.00 in/hr0.0 mm/hr 0.00 in0.0 mm
08:12 AM 21.9°F-5.6°C 20.4°F-6.4°C 94% 2.2 mph W3.5 kmh W 4.0 mph6.4 kmh 30.24 in1024.0 mb 0.00 in0.0 mm 0.00 in/hr0.0 mm/hr 0.00 in0.0 mm
08:02 AM 21.9°F-5.6°C 20.4°F-6.4°C 94% Calm Calm -- 30.23 in1023.7 mb 0.00 in0.0 mm 0.00 in/hr0.0 mm/hr 0.00 in0.0 mm
07:52 AM 21.9°F-5.6°C 20.4°F-6.4°C 94% 1.9 mph W3.1 kmh W 2.0 mph3.2 kmh 30.23 in1023.7 mb 0.00 in0.0 mm 0.00 in/hr0.0 mm/hr 0.00 in0.0 mm
07:42 AM 21.8°F-5.7°C 20.3°F-6.5°C 94% 3.9 mph WSW6.3 kmh WSW 5.0 mph8.0 kmh 30.23 in1023.7 mb 0.00 in0.0 mm 0.00 in/hr0.0 mm/hr 0.00 in0.0 mm
07:32 AM 21.8°F-5.7°C 20.3°F-6.5°C 94% 3.6 mph W5.8 kmh W 4.0 mph6.4 kmh 30.23 in1023.7 mb 0.00 in0.0 mm 0.00 in/hr0.0 mm/hr 0.00 in0.0 mm
07:22 AM 21.8°F-5.7°C 20.1°F-6.6°C 93% 4.0 mph W6.4 kmh W 5.0 mph8.0 kmh 30.23 in1023.7 mb 0.00 in0.0 mm 0.00 in/hr0.0 mm/hr 0.00 in0.0 mm
07:12 AM 21.7°F-5.7°C 20.0°F-6.7°C 93% 2.5 mph W4.0 kmh W 5.0 mph8.0 kmh 30.24 in1024.0 mb 0.00 in0.0 mm 0.00 in/hr0.0 mm/hr 0.00 in0.0 mm
07:02 AM 21.6°F-5.8°C 19.9°F-6.7°C 93% 3.8 mph WSW6.1 kmh WSW 5.0 mph8.0 kmh 30.23 in1023.7 mb 0.00 in0.0 mm 0.00 in/hr0.0 mm/hr 0.00 in0.0 mm
06:52 AM 21.6°F-5.8°C 19.6°F-6.9°C 92% 3.7 mph W6.0 kmh W 5.0 mph8.0 kmh 30.23 in1023.7 mb 0.00 in0.0 mm 0.00 in/hr0.0 mm/hr 0.00 in0.0 mm
06:42 AM 21.6°F-5.8°C 19.6°F-6.9°C 92% 3.6 mph WSW5.8 kmh WSW 5.0 mph8.0 kmh 30.23 in1023.7 mb 0.00 in0.0 mm 0.00 in/hr0.0 mm/hr 0.00 in0.0 mm
06:32 AM 21.6°F-5.8°C 19.6°F-6.9°C 92% 3.2 mph WSW5.1 kmh WSW 5.0 mph8.0 kmh 30.23 in1023.7 mb 0.00 in0.0 mm 0.00 in/hr0.0 mm/hr 0.00 in0.0 mm
06:22 AM 21.6°F-5.8°C 19.4°F-7.0°C 91% 3.7 mph WSW6.0 kmh WSW 6.0 mph9.7 kmh 30.23 in1023.7 mb 0.00 in0.0 mm 0.00 in/hr0.0 mm/hr 0.00 in0.0 mm
06:12 AM 21.6°F-5.8°C 19.1°F-7.2°C 90% 5.9 mph WSW9.5 kmh WSW 9.0 mph14.5 kmh 30.23 in1023.7 mb 0.00 in0.0 mm 0.00 in/hr0.0 mm/hr 0.00 in0.0 mm
06:02 AM 21.4°F-5.9°C 18.9°F-7.3°C 90% 4.2 mph W6.8 kmh W 8.0 mph12.9 kmh 30.23 in1023.7 mb 0.00 in0.0 mm 0.00 in/hr0.0 mm/hr 0.00 in0.0 mm
05:52 AM 21.1°F-6.1°C 18.4°F-7.6°C 89% 4.2 mph WSW6.8 kmh WSW 8.0 mph12.9 kmh 30.24 in1024.0 mb 0.00 in0.0 mm 0.00 in/hr0.0 mm/hr 0.00 in0.0 mm
05:42 AM 21.1°F-6.1°C 18.1°F-7.7°C 88% 2.4 mph W3.9 kmh W 6.0 mph9.7 kmh 30.24 in1024.0 mb 0.00 in0.0 mm 0.00 in/hr0.0 mm/hr 0.00 in0.0 mm
05:32 AM 20.2°F-6.6°C 16.4°F-8.7°C 85% 3.6 mph WSW5.8 kmh WSW 7.0 mph11.3 kmh 30.23 in1023.7 mb 0.00 in0.0 mm 0.00 in/hr0.0 mm/hr 0.00 in0.0 mm
05:22 AM 21.1°F-6.1°C 17.3°F-8.2°C 85% 5.0 mph WNW8.0 kmh WNW 9.0 mph14.5 kmh 30.24 in1024.0 mb 0.00 in0.0 mm 0.00 in/hr0.0 mm/hr 0.00 in0.0 mm
05:12 AM 21.3°F-5.9°C 17.8°F-7.9°C 86% 3.9 mph W6.3 kmh W 4.0 mph6.4 kmh 30.24 in1024.0 mb 0.00 in0.0 mm 0.00 in/hr0.0 mm/hr 0.00 in0.0 mm
05:02 AM 21.3°F-5.9°C 17.5°F-8.1°C 85% 2.9 mph WSW4.7 kmh WSW 4.0 mph6.4 kmh 30.24 in1024.0 mb 0.00 in0.0 mm 0.00 in/hr0.0 mm/hr 0.00 in0.0 mm
04:52 AM 21.3°F-5.9°C 16.9°F-8.4°C 83% 3.1 mph W5.0 kmh W 5.0 mph8.0 kmh 30.24 in1024.0 mb 0.00 in0.0 mm 0.00 in/hr0.0 mm/hr 0.00 in0.0 mm
04:42 AM 21.3°F-5.9°C 17.2°F-8.2°C 84% 4.5 mph WSW7.2 kmh WSW 5.0 mph8.0 kmh 30.24 in1024.0 mb 0.00 in0.0 mm 0.00 in/hr0.0 mm/hr 0.00 in0.0 mm
04:32 AM 21.2°F-6.0°C 17.1°F-8.3°C 84% 3.5 mph WSW5.6 kmh WSW 6.0 mph9.7 kmh 30.23 in1023.7 mb 0.00 in0.0 mm 0.00 in/hr0.0 mm/hr 0.00 in0.0 mm
04:22 AM 21.1°F-6.1°C 16.7°F-8.5°C 83% 4.8 mph W7.7 kmh W 7.0 mph11.3 kmh 30.23 in1023.7 mb 0.00 in0.0 mm 0.00 in/hr0.0 mm/hr 0.00 in0.0 mm
04:12 AM 21.0°F-6.1°C 16.6°F-8.6°C 83% 5.6 mph W9.0 kmh W 9.0 mph14.5 kmh 30.23 in1023.7 mb 0.00 in0.0 mm 0.00 in/hr0.0 mm/hr 0.00 in0.0 mm
04:02 AM 20.8°F-6.2°C 16.5°F-8.6°C 83% 3.3 mph W5.3 kmh W 8.0 mph12.9 kmh 30.22 in1023.4 mb 0.00 in0.0 mm 0.00 in/hr0.0 mm/hr 0.00 in0.0 mm
03:52 AM 20.8°F-6.2°C 16.5°F-8.6°C 83% 5.4 mph W8.7 kmh W 8.0 mph12.9 kmh 30.22 in1023.4 mb 0.00 in0.0 mm 0.00 in/hr0.0 mm/hr 0.00 in0.0 mm
03:42 AM 20.6°F-6.3°C 16.3°F-8.7°C 83% 5.7 mph WSW9.2 kmh WSW 7.0 mph11.3 kmh 30.22 in1023.4 mb 0.00 in0.0 mm 0.00 in/hr0.0 mm/hr 0.00 in0.0 mm
03:32 AM 20.5°F-6.4°C 16.2°F-8.8°C 83% 4.6 mph WSW7.4 kmh WSW 8.0 mph12.9 kmh 30.22 in1023.4 mb 0.00 in0.0 mm 0.00 in/hr0.0 mm/hr 0.00 in0.0 mm
03:22 AM 20.3°F-6.5°C 16.5°F-8.6°C 85% 4.2 mph WSW6.8 kmh WSW 5.0 mph8.0 kmh 30.23 in1023.7 mb 0.00 in0.0 mm 0.00 in/hr0.0 mm/hr 0.00 in0.0 mm
03:12 AM 20.1°F-6.6°C 15.8°F-9.0°C 83% 3.3 mph WSW5.3 kmh WSW 7.0 mph11.3 kmh 30.23 in1023.7 mb 0.00 in0.0 mm 0.00 in/hr0.0 mm/hr 0.00 in0.0 mm
03:02 AM 19.7°F-6.8°C 15.4°F-9.2°C 83% 4.4 mph WSW7.1 kmh WSW 7.0 mph11.3 kmh 30.23 in1023.7 mb 0.00 in0.0 mm 0.00 in/hr0.0 mm/hr 0.00 in0.0 mm
02:52 AM 19.1°F-7.2°C 14.5°F-9.7°C 82% 3.3 mph WSW5.3 kmh WSW 4.0 mph6.4 kmh 30.23 in1023.7 mb 0.00 in0.0 mm 0.00 in/hr0.0 mm/hr 0.00 in0.0 mm
02:42 AM 19.4°F-7.0°C 14.8°F-9.6°C 82% 1.5 mph WSW2.4 kmh WSW 4.0 mph6.4 kmh 30.23 in1023.7 mb 0.00 in0.0 mm 0.00 in/hr0.0 mm/hr 0.00 in0.0 mm
02:32 AM 19.7°F-6.8°C 15.1°F-9.4°C 82% 3.3 mph WSW5.3 kmh WSW 6.0 mph9.7 kmh 30.23 in1023.7 mb 0.00 in0.0 mm 0.00 in/hr0.0 mm/hr 0.00 in0.0 mm
02:22 AM 19.4°F-7.0°C 14.8°F-9.6°C 82% 1.0 mph WSW1.6 kmh WSW 3.0 mph4.8 kmh 30.23 in1023.7 mb 0.00 in0.0 mm 0.00 in/hr0.0 mm/hr 0.00 in0.0 mm
02:12 AM 19.2°F-7.1°C 14.6°F-9.7°C 82% 3.3 mph WSW5.3 kmh WSW 4.0 mph6.4 kmh 30.23 in1023.7 mb 0.00 in0.0 mm 0.00 in/hr0.0 mm/hr 0.00 in0.0 mm
02:02 AM 18.9°F-7.3°C 14.3°F-9.8°C 82% 4.7 mph W7.6 kmh W 6.0 mph9.7 kmh 30.23 in1023.7 mb 0.00 in0.0 mm 0.00 in/hr0.0 mm/hr 0.00 in0.0 mm
01:52 AM 18.9°F-7.3°C 14.3°F-9.8°C 82% 3.3 mph W5.3 kmh W 7.0 mph11.3 kmh 30.23 in1023.7 mb 0.00 in0.0 mm 0.00 in/hr0.0 mm/hr 0.00 in0.0 mm
01:42 AM 18.8°F-7.3°C 14.2°F-9.9°C 82% 3.6 mph WSW5.8 kmh WSW 7.0 mph11.3 kmh 30.23 in1023.7 mb 0.00 in0.0 mm 0.00 in/hr0.0 mm/hr 0.00 in0.0 mm
01:32 AM 18.6°F-7.4°C 14.0°F-10.0°C 82% 4.1 mph W6.6 kmh W 7.0 mph11.3 kmh 30.23 in1023.7 mb 0.00 in0.0 mm 0.00 in/hr0.0 mm/hr 0.00 in0.0 mm
01:22 AM 18.3°F-7.6°C 13.4°F-10.3°C 81% 5.0 mph WSW8.0 kmh WSW 8.0 mph12.9 kmh 30.23 in1023.7 mb 0.00 in0.0 mm 0.00 in/hr0.0 mm/hr 0.00 in0.0 mm
01:12 AM 18.1°F-7.7°C 13.2°F-10.4°C 81% 3.6 mph W5.8 kmh W 7.0 mph11.3 kmh 30.23 in1023.7 mb 0.00 in0.0 mm 0.00 in/hr0.0 mm/hr 0.00 in0.0 mm
01:02 AM 17.7°F-7.9°C 12.9°F-10.6°C 81% 3.0 mph W4.8 kmh W 5.0 mph8.0 kmh 30.23 in1023.7 mb 0.00 in0.0 mm 0.00 in/hr0.0 mm/hr 0.00 in0.0 mm
12:52 AM 17.2°F-8.2°C 12.1°F-11.1°C 80% 2.9 mph W4.7 kmh W 4.0 mph6.4 kmh 30.23 in1023.7 mb 0.00 in0.0 mm 0.00 in/hr0.0 mm/hr 0.00 in0.0 mm
12:42 AM 16.5°F-8.6°C 11.1°F-11.6°C 79% 1.0 mph W1.6 kmh W 2.0 mph3.2 kmh 30.23 in1023.7 mb 0.00 in0.0 mm 0.00 in/hr0.0 mm/hr 0.00 in0.0 mm
12:32 AM 16.0°F-8.9°C 10.6°F-11.9°C 79% Calm Calm -- 30.24 in1024.0 mb 0.00 in0.0 mm 0.00 in/hr0.0 mm/hr 0.00 in0.0 mm
12:22 AM 15.6°F-9.1°C 10.0°F-12.2°C 78% Calm Calm -- 30.24 in1024.0 mb 0.00 in0.0 mm 0.00 in/hr0.0 mm/hr 0.00 in0.0 mm
12:12 AM 15.4°F-9.2°C 10.1°F-12.2°C 79% Calm Calm -- 30.24 in1024.0 mb 0.00 in0.0 mm 0.00 in/hr0.0 mm/hr 0.00 in0.0 mm
12:02 AM 15.2°F-9.3°C 9.9°F-12.3°C 79% Calm Calm -- 30.24 in1024.0 mb 0.00 in0.0 mm 0.00 in/hr0.0 mm/hr 0.00 in0.0 mm